Time;durP1;ratioP1;P1;durP2;ratioP2;P2;SDS_P1;SDS_P2;PMS_P1;PMS_P2;Temp;Humidity;BMP_temperature;BMP_pressure;BME280_temperature;BME280_humidity;BME280_pressure;Samples;Min_cycle;Max_cycle;Signal;HPM_P1;HPM_P2
2023/05/27 00:01:42;;;;;;;15.15;7.10;;;;;;;;;;5097890;28;20068;-68
2023/05/27 00:04:07;;;;;;;21.05;7.72;;;;;;;;;;5106749;28;20016;-68
2023/05/27 00:06:32;;;;;;;15.23;7.20;;;;;;;;;;5090107;28;20461;-68
2023/05/27 00:08:57;;;;;;;23.80;6.80;;;;;;;;;;5093849;28;20020;-68
2023/05/27 00:11:23;;;;;;;14.27;7.68;;;;;;;;;;5094284;28;20390;-68
2023/05/27 00:13:48;;;;;;;17.50;7.30;;;;;;;;;;5108016;28;20073;-68
2023/05/27 00:16:13;;;;;;;13.13;6.05;;;;;;;;;;5094463;28;20051;-68
2023/05/27 00:18:39;;;;;;;23.20;7.20;;;;;;;;;;5107631;28;20024;-68
2023/05/27 00:21:04;;;;;;;14.90;6.45;;;;;;;;;;5103957;28;20494;-68
2023/05/27 00:23:29;;;;;;;17.98;7.63;;;;;;;;;;5109691;28;20111;-68
2023/05/27 00:25:55;;;;;;;14.88;7.22;;;;;;;;;;5103383;28;20023;-68
2023/05/27 00:28:20;;;;;;;15.00;6.93;;;;;;;;;;5113440;28;20024;-68
2023/05/27 00:30:45;;;;;;;13.15;6.07;;;;;;;;;;5113661;28;20032;-68
2023/05/27 00:33:10;;;;;;;19.02;8.15;;;;;;;;;;5113087;28;20495;-68
2023/05/27 00:35:36;;;;;;;19.55;7.53;;;;;;;;;;5112973;28;20035;-68
2023/05/27 00:38:01;;;;;;;16.98;7.05;;;;;;;;;;5112555;28;20020;-68
2023/05/27 00:40:28;;;;;;;11.52;6.18;;;;;;;;;;5113493;28;20020;-68
2023/05/27 00:42:54;;;;;;;18.15;7.68;;;;;;;;;;5112872;28;20027;-68
2023/05/27 00:45:19;;;;;;;26.30;8.10;;;;;;;;;;5113588;28;20016;-69
2023/05/27 00:47:45;;;;;;;15.70;7.05;;;;;;;;;;5112553;28;20489;-68
2023/05/27 00:50:10;;;;;;;24.05;7.30;;;;;;;;;;5112968;28;20114;-69
2023/05/27 00:52:35;;;;;;;18.20;7.50;;;;;;;;;;5108786;28;20027;-68
2023/05/27 00:55:00;;;;;;;18.95;6.82;;;;;;;;;;5093252;28;20467;-69
2023/05/27 00:57:26;;;;;;;22.13;7.80;;;;;;;;;;5093599;28;20123;-69
2023/05/27 00:59:52;;;;;;;19.15;7.55;;;;;;;;;;5098574;28;20545;-68
2023/05/27 01:02:17;;;;;;;20.63;6.60;;;;;;;;;;5112847;28;20445;-68
2023/05/27 01:04:43;;;;;;;23.08;6.57;;;;;;;;;;5104489;28;20040;-68
2023/05/27 01:07:10;;;;;;;11.55;6.45;;;;;;;;;;5093142;28;20111;-69
2023/05/27 01:09:44;;;;;;;18.77;8.18;;;;;;;;;;5092933;28;20059;-68
2023/05/27 01:12:09;;;;;;;12.00;6.72;;;;;;;;;;5106151;28;20115;-68
2023/05/27 01:14:36;;;;;;;16.45;7.72;;;;;;;;;;5092708;28;20514;-68
2023/05/27 01:17:03;;;;;;;20.85;7.47;;;;;;;;;;5096557;28;20019;-68
2023/05/27 01:19:36;;;;;;;17.63;6.85;;;;;;;;;;5100580;28;20024;-68
2023/05/27 01:22:02;;;;;;;16.50;7.25;;;;;;;;;;5092790;28;20486;-68
2023/05/27 01:24:27;;;;;;;15.73;7.07;;;;;;;;;;5091088;28;20036;-68
2023/05/27 01:26:55;;;;;;;22.65;7.45;;;;;;;;;;5097805;28;20035;-68
2023/05/27 01:29:20;;;;;;;25.50;7.53;;;;;;;;;;5106394;28;20431;-68
2023/05/27 01:31:55;;;;;;;13.73;7.00;;;;;;;;;;5094237;28;20091;-68
2023/05/27 01:34:30;;;;;;;15.95;7.43;;;;;;;;;;5098276;28;20074;-68
2023/05/27 01:36:58;;;;;;;18.15;7.65;;;;;;;;;;5099204;28;20026;-68
2023/05/27 01:39:25;;;;;;;18.98;7.53;;;;;;;;;;5106084;28;20010;-68
2023/05/27 01:41:51;;;;;;;15.90;6.85;;;;;;;;;;5104460;28;20084;-69
2023/05/27 01:44:17;;;;;;;22.38;7.20;;;;;;;;;;5093000;28;20023;-68
2023/05/27 01:46:43;;;;;;;17.77;7.05;;;;;;;;;;5102574;28;20028;-68
2023/05/27 01:49:08;;;;;;;20.80;7.38;;;;;;;;;;5105776;28;20072;-68
2023/05/27 01:51:33;;;;;;;14.75;7.38;;;;;;;;;;5092549;28;20118;-68
2023/05/27 01:53:58;;;;;;;28.25;8.85;;;;;;;;;;5105420;28;20056;-69
2023/05/27 01:56:24;;;;;;;18.05;8.15;;;;;;;;;;5100423;28;20393;-68
2023/05/27 01:58:49;;;;;;;22.48;7.70;;;;;;;;;;5098410;28;20035;-68
2023/05/27 02:01:14;;;;;;;20.95;7.93;;;;;;;;;;5093703;28;20047;-66
2023/05/27 02:03:40;;;;;;;18.17;7.82;;;;;;;;;;5099145;28;20492;-67
2023/05/27 02:06:05;;;;;;;14.95;7.28;;;;;;;;;;5105716;28;20031;-67
2023/05/27 02:08:31;;;;;;;23.85;7.70;;;;;;;;;;5105189;28;20020;-67
2023/05/27 02:10:56;;;;;;;18.85;8.18;;;;;;;;;;5093225;28;20052;-67
2023/05/27 02:13:21;;;;;;;15.65;7.10;;;;;;;;;;5092335;28;20050;-68
2023/05/27 02:15:47;;;;;;;24.20;8.00;;;;;;;;;;5093106;28;20102;-68
2023/05/27 02:18:12;;;;;;;18.75;8.65;;;;;;;;;;5092182;28;20108;-68
2023/05/27 02:20:38;;;;;;;25.48;8.20;;;;;;;;;;5092738;28;20028;-68
2023/05/27 02:23:04;;;;;;;23.25;7.80;;;;;;;;;;5092023;28;20020;-68
2023/05/27 02:25:29;;;;;;;30.33;9.35;;;;;;;;;;5092767;28;20360;-68
2023/05/27 02:27:55;;;;;;;23.73;8.50;;;;;;;;;;5111402;28;20031;-68
2023/05/27 02:30:20;;;;;;;22.20;7.90;;;;;;;;;;5109847;28;20531;-68
2023/05/27 02:32:45;;;;;;;20.20;9.18;;;;;;;;;;5110973;28;20023;-68
2023/05/27 02:35:16;;;;;;;19.13;7.88;;;;;;;;;;5111067;28;20034;-68
2023/05/27 02:37:42;;;;;;;20.92;8.05;;;;;;;;;;5091734;28;20031;-68
2023/05/27 02:40:09;;;;;;;22.52;9.70;;;;;;;;;;5091945;28;20371;-67
2023/05/27 02:42:34;;;;;;;21.98;7.93;;;;;;;;;;5091574;28;20066;-67
2023/05/27 02:45:00;;;;;;;14.35;7.38;;;;;;;;;;5092205;28;20497;-67
2023/05/27 02:47:25;;;;;;;17.23;8.23;;;;;;;;;;5093825;28;20390;-67
2023/05/27 02:49:50;;;;;;;25.58;8.63;;;;;;;;;;5092100;28;20110;-67
2023/05/27 02:52:16;;;;;;;26.42;8.55;;;;;;;;;;5093674;28;20030;-67
2023/05/27 02:54:41;;;;;;;20.95;8.63;;;;;;;;;;5092696;28;20035;-67
2023/05/27 02:57:06;;;;;;;18.08;8.23;;;;;;;;;;5095617;28;20448;-67
2023/05/27 02:59:32;;;;;;;14.43;7.63;;;;;;;;;;5074177;28;20047;-67
2023/05/27 03:01:57;;;;;;;20.70;9.00;;;;;;;;;;5093290;28;20031;-67
2023/05/27 03:04:23;;;;;;;31.33;9.55;;;;;;;;;;5110850;28;20027;-67
2023/05/27 03:06:48;;;;;;;18.02;8.57;;;;;;;;;;5078570;28;20097;-68
2023/05/27 03:09:14;;;;;;;28.15;8.98;;;;;;;;;;5091012;28;20455;-68
2023/05/27 03:11:39;;;;;;;24.58;8.93;;;;;;;;;;5091210;28;20048;-67
2023/05/27 03:14:05;;;;;;;19.70;8.00;;;;;;;;;;5094377;28;20069;-67
2023/05/27 03:16:31;;;;;;;18.30;9.00;;;;;;;;;;5072632;28;20089;-67
2023/05/27 03:18:56;;;;;;;23.08;9.25;;;;;;;;;;5090848;28;20443;-67
2023/05/27 03:21:21;;;;;;;20.25;8.35;;;;;;;;;;5090635;28;20052;-67
2023/05/27 03:23:47;;;;;;;16.67;8.40;;;;;;;;;;5110368;28;20027;-67
2023/05/27 03:26:12;;;;;;;17.05;8.55;;;;;;;;;;5111075;28;20385;-67
2023/05/27 03:28:37;;;;;;;17.30;9.18;;;;;;;;;;5109998;28;20035;-67
2023/05/27 03:31:03;;;;;;;16.23;8.15;;;;;;;;;;5110545;28;20359;-67
2023/05/27 03:33:28;;;;;;;14.27;8.15;;;;;;;;;;5108787;28;20023;-67
2023/05/27 03:35:55;;;;;;;17.05;7.82;;;;;;;;;;5109168;28;20016;-67
2023/05/27 03:38:20;;;;;;;17.40;8.68;;;;;;;;;;5096084;28;20028;-67
2023/05/27 03:40:46;;;;;;;28.40;9.07;;;;;;;;;;5107362;28;20076;-67
2023/05/27 03:43:11;;;;;;;24.13;9.82;;;;;;;;;;5110728;28;20035;-67
2023/05/27 03:45:36;;;;;;;26.35;10.73;;;;;;;;;;5112315;28;20051;-68
2023/05/27 03:48:02;;;;;;;15.80;8.90;;;;;;;;;;5112186;28;20023;-67
2023/05/27 03:50:27;;;;;;;29.45;10.40;;;;;;;;;;5113197;28;20423;-67
2023/05/27 03:52:52;;;;;;;23.30;8.50;;;;;;;;;;5112779;28;20539;-67
2023/05/27 03:55:20;;;;;;;18.23;9.25;;;;;;;;;;5111696;28;20022;-67
2023/05/27 03:57:45;;;;;;;23.20;8.57;;;;;;;;;;5112237;28;20466;-67
2023/05/27 04:00:16;;;;;;;33.88;9.90;;;;;;;;;;5112680;28;20042;-68
2023/05/27 04:02:41;;;;;;;26.50;10.32;;;;;;;;;;5107185;28;20038;-67
2023/05/27 04:05:06;;;;;;;17.92;9.43;;;;;;;;;;5111481;28;20106;-67
2023/05/27 04:07:32;;;;;;;19.08;9.73;;;;;;;;;;5112471;28;20022;-67
2023/05/27 04:09:57;;;;;;;29.83;11.18;;;;;;;;;;5112634;28;20377;-67
2023/05/27 04:12:22;;;;;;;22.83;10.07;;;;;;;;;;5112107;28;20470;-67
2023/05/27 04:14:48;;;;;;;25.55;9.93;;;;;;;;;;5110619;28;20032;-67
2023/05/27 04:17:13;;;;;;;23.02;10.65;;;;;;;;;;5112073;28;20027;-67
2023/05/27 04:19:38;;;;;;;20.33;9.38;;;;;;;;;;5112010;28;20421;-67
2023/05/27 04:22:04;;;;;;;19.80;9.85;;;;;;;;;;5113007;28;20482;-67
2023/05/27 04:24:29;;;;;;;28.65;10.30;;;;;;;;;;5103748;28;20031;-67
2023/05/27 04:26:54;;;;;;;26.75;10.27;;;;;;;;;;5098687;28;20031;-67
2023/05/27 04:29:20;;;;;;;37.15;11.65;;;;;;;;;;5102839;28;20046;-67
2023/05/27 04:31:45;;;;;;;28.50;10.98;;;;;;;;;;5097466;28;20024;-67
2023/05/27 04:34:10;;;;;;;21.58;9.95;;;;;;;;;;5102154;28;20027;-67
2023/05/27 04:36:36;;;;;;;24.48;9.32;;;;;;;;;;5098638;28;20494;-67
2023/05/27 04:39:02;;;;;;;19.42;9.73;;;;;;;;;;5093628;28;20111;-67
2023/05/27 04:41:28;;;;;;;20.55;9.88;;;;;;;;;;5099106;28;20107;-67
2023/05/27 04:43:53;;;;;;;23.00;9.98;;;;;;;;;;5100627;28;20417;-67
2023/05/27 04:46:19;;;;;;;28.98;10.75;;;;;;;;;;5101792;28;20046;-67
2023/05/27 04:48:46;;;;;;;18.08;9.30;;;;;;;;;;5096855;28;20031;-67
2023/05/27 04:51:11;;;;;;;19.77;10.50;;;;;;;;;;5100469;28;20012;-67
2023/05/27 04:53:36;;;;;;;26.38;11.25;;;;;;;;;;5098217;28;20088;-67
2023/05/27 04:56:01;;;;;;;18.55;9.23;;;;;;;;;;5110215;28;20489;-67
2023/05/27 04:58:28;;;;;;;25.20;10.50;;;;;;;;;;5110791;28;20047;-68
2023/05/27 05:00:54;;;;;;;22.67;10.38;;;;;;;;;;5101511;28;20032;-67
2023/05/27 05:03:36;;;;;;;24.58;10.75;;;;;;;;;;5095606;28;20111;-67
2023/05/27 05:06:02;;;;;;;20.38;9.65;;;;;;;;;;5094531;28;20028;-67
2023/05/27 05:08:27;;;;;;;38.63;10.98;;;;;;;;;;5101769;28;20116;-67
2023/05/27 05:10:52;;;;;;;26.25;10.25;;;;;;;;;;5106104;28;20024;-68
2023/05/27 05:13:18;;;;;;;22.30;9.95;;;;;;;;;;5099363;28;20571;-67
2023/05/27 05:15:43;;;;;;;19.90;8.95;;;;;;;;;;5093741;28;20016;-68
2023/05/27 05:18:10;;;;;;;20.65;9.48;;;;;;;;;;5094703;28;20023;-68
2023/05/27 05:20:35;;;;;;;34.42;10.00;;;;;;;;;;5094759;28;20394;-68
2023/05/27 05:23:00;;;;;;;23.40;9.88;;;;;;;;;;5093133;28;20032;-67
2023/05/27 05:25:25;;;;;;;19.98;9.30;;;;;;;;;;5092886;28;20035;-68
2023/05/27 05:27:51;;;;;;;21.63;9.55;;;;;;;;;;5093087;28;20024;-68
2023/05/27 05:30:16;;;;;;;26.92;11.45;;;;;;;;;;5107936;28;20035;-68
2023/05/27 05:32:41;;;;;;;27.08;10.10;;;;;;;;;;5097782;28;20027;-67
2023/05/27 05:35:07;;;;;;;23.27;10.40;;;;;;;;;;5102527;28;20030;-67
2023/05/27 05:37:32;;;;;;;21.60;10.00;;;;;;;;;;5097555;28;20115;-68
2023/05/27 05:39:58;;;;;;;26.13;9.80;;;;;;;;;;5092886;28;20039;-67
2023/05/27 05:42:24;;;;;;;17.58;8.95;;;;;;;;;;5111423;28;20027;-68
2023/05/27 05:44:50;;;;;;;23.50;10.77;;;;;;;;;;5095049;28;20820;-67
2023/05/27 05:47:16;;;;;;;17.77;8.98;;;;;;;;;;5100971;28;20034;-67
2023/05/27 05:49:41;;;;;;;16.73;9.57;;;;;;;;;;5049645;28;20950;-68
2023/05/27 05:52:06;;;;;;;21.77;9.27;;;;;;;;;;5042447;28;20038;-68
2023/05/27 05:54:31;;;;;;;16.45;9.38;;;;;;;;;;5066583;28;20815;-67
2023/05/27 05:56:57;;;;;;;27.77;9.55;;;;;;;;;;5066767;28;20122;-67
2023/05/27 05:59:22;;;;;;;21.38;8.55;;;;;;;;;;5067230;28;20127;-67
2023/05/27 06:01:47;;;;;;;14.65;8.73;;;;;;;;;;5066340;28;20857;-67
2023/05/27 06:04:12;;;;;;;15.50;8.45;;;;;;;;;;5065127;28;20024;-67
2023/05/27 06:06:39;;;;;;;28.20;11.38;;;;;;;;;;5106281;28;20032;-68
2023/05/27 06:09:05;;;;;;;20.20;9.15;;;;;;;;;;5107528;28;20650;-67
2023/05/27 06:11:31;;;;;;;19.88;9.52;;;;;;;;;;5107460;28;20019;-67
2023/05/27 06:13:56;;;;;;;20.45;9.95;;;;;;;;;;5105627;28;20355;-67
2023/05/27 06:16:21;;;;;;;18.67;9.45;;;;;;;;;;5101892;28;20023;-68
2023/05/27 06:18:47;;;;;;;21.88;9.27;;;;;;;;;;5102382;28;20562;-67
2023/05/27 06:21:12;;;;;;;18.38;9.57;;;;;;;;;;5097637;28;20098;-67
2023/05/27 06:23:37;;;;;;;16.33;8.73;;;;;;;;;;5101842;28;20027;-67
2023/05/27 06:26:02;;;;;;;16.58;8.93;;;;;;;;;;5097096;28;20031;-67
2023/05/27 06:28:28;;;;;;;17.08;9.15;;;;;;;;;;5077774;28;20482;-68
2023/05/27 06:30:53;;;;;;;18.05;9.30;;;;;;;;;;5108750;28;20516;-67
2023/05/27 06:33:18;;;;;;;18.05;8.48;;;;;;;;;;5104901;28;20024;-67
2023/05/27 06:35:44;;;;;;;16.83;9.35;;;;;;;;;;5103590;28;20355;-67
2023/05/27 06:38:09;;;;;;;24.02;9.68;;;;;;;;;;5062953;28;20019;-67
2023/05/27 06:40:34;;;;;;;22.33;10.52;;;;;;;;;;5060717;28;20088;-67
2023/05/27 06:43:00;;;;;;;19.52;9.45;;;;;;;;;;5059210;28;20037;-67
2023/05/27 06:45:25;;;;;;;19.23;9.52;;;;;;;;;;5104298;28;20027;-67
2023/05/27 06:47:50;;;;;;;19.42;10.45;;;;;;;;;;5102631;28;20020;-67
2023/05/27 06:50:15;;;;;;;17.90;8.70;;;;;;;;;;5109940;28;20095;-68
2023/05/27 06:52:41;;;;;;;21.15;9.88;;;;;;;;;;5084532;28;20493;-67
2023/05/27 06:55:06;;;;;;;18.50;9.68;;;;;;;;;;5107386;28;20098;-67
2023/05/27 06:57:32;;;;;;;17.92;9.88;;;;;;;;;;5101737;28;20063;-67
2023/05/27 06:59:57;;;;;;;16.60;9.37;;;;;;;;;;5111543;28;20066;-68
2023/05/27 07:02:22;;;;;;;23.75;10.07;;;;;;;;;;5107348;28;20304;-67
2023/05/27 07:04:47;;;;;;;20.67;9.48;;;;;;;;;;5110646;28;20020;-68
2023/05/27 07:07:12;;;;;;;18.85;9.18;;;;;;;;;;5108143;28;20028;-67
2023/05/27 07:09:38;;;;;;;20.58;7.97;;;;;;;;;;5069357;28;20906;-67
2023/05/27 07:12:03;;;;;;;24.05;9.45;;;;;;;;;;5064311;28;20019;-67
2023/05/27 07:14:28;;;;;;;22.52;9.43;;;;;;;;;;5054607;28;20071;-67
2023/05/27 07:16:54;;;;;;;18.15;8.70;;;;;;;;;;5091969;28;20024;-67
2023/05/27 07:19:19;;;;;;;19.08;8.15;;;;;;;;;;5092027;28;20099;-68
2023/05/27 07:21:44;;;;;;;24.60;8.52;;;;;;;;;;5071544;28;20493;-67
2023/05/27 07:24:10;;;;;;;14.60;8.73;;;;;;;;;;5055836;28;20020;-68
2023/05/27 07:26:36;;;;;;;16.02;8.90;;;;;;;;;;5065807;28;20069;-67
2023/05/27 07:29:01;;;;;;;17.02;9.40;;;;;;;;;;5074925;28;20028;-67
2023/05/27 07:31:27;;;;;;;14.65;8.27;;;;;;;;;;5093487;28;20020;-67
2023/05/27 07:33:53;;;;;;;17.15;8.82;;;;;;;;;;5098785;28;20386;-68
2023/05/27 07:36:18;;;;;;;18.38;7.93;;;;;;;;;;5093559;28;20394;-67
2023/05/27 07:38:43;;;;;;;20.75;9.35;;;;;;;;;;5105454;28;20444;-67
2023/05/27 07:41:10;;;;;;;20.45;8.02;;;;;;;;;;5111254;28;20026;-68
2023/05/27 07:43:35;;;;;;;13.32;8.07;;;;;;;;;;5110798;28;20028;-68
2023/05/27 07:46:01;;;;;;;14.20;7.32;;;;;;;;;;5108725;28;20028;-68
2023/05/27 07:48:27;;;;;;;14.75;8.73;;;;;;;;;;5095676;28;20362;-64
2023/05/27 07:50:52;;;;;;;18.55;8.68;;;;;;;;;;5098302;28;20496;-67
2023/05/27 07:53:18;;;;;;;18.52;8.98;;;;;;;;;;5099127;28;20024;-68
2023/05/27 07:55:43;;;;;;;20.40;8.60;;;;;;;;;;5082427;28;20899;-67
2023/05/27 07:58:08;;;;;;;12.50;7.65;;;;;;;;;;5101069;28;20058;-67
2023/05/27 08:00:33;;;;;;;19.25;8.25;;;;;;;;;;5102877;28;20080;-67
2023/05/27 08:02:59;;;;;;;18.20;8.25;;;;;;;;;;5098918;28;20024;-67
2023/05/27 08:05:25;;;;;;;16.73;8.60;;;;;;;;;;5103788;28;20112;-67
2023/05/27 08:07:50;;;;;;;16.13;7.78;;;;;;;;;;5109564;28;20015;-67
2023/05/27 08:10:15;;;;;;;13.90;7.55;;;;;;;;;;5108834;28;20046;-67
2023/05/27 08:12:41;;;;;;;25.80;8.35;;;;;;;;;;5080133;28;20027;-67
2023/05/27 08:15:06;;;;;;;14.23;8.63;;;;;;;;;;5067289;28;20069;-67
2023/05/27 08:17:31;;;;;;;20.90;8.13;;;;;;;;;;5064882;28;20020;-67
2023/05/27 08:19:57;;;;;;;20.90;9.25;;;;;;;;;;5063798;28;20023;-68
2023/05/27 08:22:22;;;;;;;15.05;7.07;;;;;;;;;;5061051;28;20035;-67
2023/05/27 08:24:49;;;;;;;17.55;7.50;;;;;;;;;;5073399;28;20082;-67
2023/05/27 08:27:18;;;;;;;15.35;7.97;;;;;;;;;;5075990;28;20026;-68
2023/05/27 08:29:44;;;;;;;19.25;7.80;;;;;;;;;;5069062;28;20152;-67
2023/05/27 08:32:09;;;;;;;20.85;8.32;;;;;;;;;;5077290;28;20421;-68
2023/05/27 08:34:34;;;;;;;18.17;7.75;;;;;;;;;;5102428;28;20023;-68
2023/05/27 08:37:01;;;;;;;17.52;7.53;;;;;;;;;;5099246;28;20023;-67
2023/05/27 08:39:27;;;;;;;16.30;7.97;;;;;;;;;;5104882;28;20042;-68
2023/05/27 08:41:52;;;;;;;15.43;8.20;;;;;;;;;;5102070;28;20025;-68
2023/05/27 08:44:17;;;;;;;16.67;7.32;;;;;;;;;;5107416;28;20020;-67
2023/05/27 08:46:43;;;;;;;17.08;7.72;;;;;;;;;;5106946;28;20032;-67
2023/05/27 08:49:08;;;;;;;16.42;7.28;;;;;;;;;;5106474;28;20486;-67
2023/05/27 08:51:38;;;;;;;19.30;8.25;;;;;;;;;;5099706;28;20119;-67
2023/05/27 08:54:03;;;;;;;20.48;7.88;;;;;;;;;;5100391;28;20420;-65
2023/05/27 08:56:30;;;;;;;12.38;7.22;;;;;;;;;;5106090;28;20028;-67
2023/05/27 08:58:56;;;;;;;16.52;7.78;;;;;;;;;;5106927;28;20028;-67
2023/05/27 09:01:21;;;;;;;20.90;7.72;;;;;;;;;;5101001;28;20024;-67
2023/05/27 09:03:47;;;;;;;20.98;8.25;;;;;;;;;;5103466;28;20493;-67
2023/05/27 09:06:13;;;;;;;16.40;7.15;;;;;;;;;;5111736;28;20027;-67
2023/05/27 09:08:38;;;;;;;18.90;8.00;;;;;;;;;;5105461;28;20016;-66
2023/05/27 09:11:07;;;;;;;19.10;8.05;;;;;;;;;;5102817;28;20079;-66
2023/05/27 09:13:33;;;;;;;14.27;7.45;;;;;;;;;;5098415;28;20031;-67
2023/05/27 09:15:59;;;;;;;15.52;7.88;;;;;;;;;;5103543;28;20034;-67
2023/05/27 09:18:25;;;;;;;14.10;7.63;;;;;;;;;;5109588;28;20420;-67
2023/05/27 09:20:53;;;;;;;18.83;7.25;;;;;;;;;;5107388;28;20073;-67
2023/05/27 09:23:18;;;;;;;24.83;8.50;;;;;;;;;;5104057;28;20024;-67
2023/05/27 09:25:43;;;;;;;13.55;7.40;;;;;;;;;;5108388;28;20034;-67
2023/05/27 09:28:09;;;;;;;15.23;7.00;;;;;;;;;;5103527;28;20074;-67
2023/05/27 09:30:35;;;;;;;14.70;7.60;;;;;;;;;;5108844;28;20265;-67
2023/05/27 09:33:02;;;;;;;14.68;7.72;;;;;;;;;;5104415;28;20416;-65
2023/05/27 09:35:27;;;;;;;18.20;8.98;;;;;;;;;;5108723;28;20068;-67
2023/05/27 09:37:52;;;;;;;16.13;7.45;;;;;;;;;;5098154;28;20020;-66
2023/05/27 09:40:18;;;;;;;19.13;7.75;;;;;;;;;;5092364;28;20530;-67
2023/05/27 09:42:46;;;;;;;16.90;8.57;;;;;;;;;;5105025;28;20032;-66
2023/05/27 09:45:20;;;;;;;15.65;7.63;;;;;;;;;;5104363;28;20024;-67
2023/05/27 09:47:49;;;;;;;16.13;7.95;;;;;;;;;;5102082;28;20031;-66
2023/05/27 09:50:15;;;;;;;14.23;7.63;;;;;;;;;;5101889;28;20107;-67
2023/05/27 09:52:41;;;;;;;15.90;7.28;;;;;;;;;;5095455;28;20032;-66
2023/05/27 09:55:11;;;;;;;17.70;7.97;;;;;;;;;;5067446;28;20027;-66
2023/05/27 09:57:37;;;;;;;21.17;7.68;;;;;;;;;;5067694;28;20027;-67
2023/05/27 10:00:13;;;;;;;15.32;6.53;;;;;;;;;;5062214;28;20016;-67
2023/05/27 10:02:42;;;;;;;19.77;8.02;;;;;;;;;;5068128;28;20515;-66
2023/05/27 10:05:11;;;;;;;17.85;7.18;;;;;;;;;;5066572;28;20105;-64
2023/05/27 10:07:38;;;;;;;20.27;9.35;;;;;;;;;;5099643;28;20036;-67
2023/05/27 10:10:08;;;;;;;15.52;7.25;;;;;;;;;;5105655;28;20431;-67
2023/05/27 10:12:33;;;;;;;13.98;7.72;;;;;;;;;;5107634;28;20072;-67
2023/05/27 10:14:59;;;;;;;11.13;7.30;;;;;;;;;;5105808;28;20039;-67
2023/05/27 10:17:24;;;;;;;13.30;7.13;;;;;;;;;;5107758;28;20031;-67
2023/05/27 10:19:54;;;;;;;14.05;7.60;;;;;;;;;;5108968;28;20385;-66
2023/05/27 10:22:20;;;;;;;15.18;6.68;;;;;;;;;;5110415;28;20024;-66
2023/05/27 10:24:47;;;;;;;20.05;7.50;;;;;;;;;;5106687;28;20028;-67
2023/05/27 10:27:13;;;;;;;11.95;6.60;;;;;;;;;;5106673;28;20023;-67
2023/05/27 10:29:38;;;;;;;16.38;6.72;;;;;;;;;;5106863;28;20430;-66
2023/05/27 10:32:04;;;;;;;16.23;6.65;;;;;;;;;;5108382;28;20028;-66
2023/05/27 10:34:42;;;;;;;15.85;6.50;;;;;;;;;;5104952;28;20027;-66
2023/05/27 10:37:08;;;;;;;15.82;6.85;;;;;;;;;;5080085;28;20034;-66
2023/05/27 10:39:33;;;;;;;27.23;6.88;;;;;;;;;;5066280;28;20020;-67
2023/05/27 10:41:58;;;;;;;15.50;7.10;;;;;;;;;;5068133;28;20131;-66
2023/05/27 10:44:32;;;;;;;10.88;7.38;;;;;;;;;;5067152;28;20073;-66
2023/05/27 10:47:04;;;;;;;14.85;7.25;;;;;;;;;;5065331;28;20108;-66
2023/05/27 10:49:37;;;;;;;14.95;7.32;;;;;;;;;;5065949;28;20088;-67
2023/05/27 10:52:12;;;;;;;11.95;7.22;;;;;;;;;;5064476;28;21060;-66
2023/05/27 10:54:38;;;;;;;13.32;6.32;;;;;;;;;;5067764;28;20023;-67
2023/05/27 10:57:04;;;;;;;14.50;6.85;;;;;;;;;;5066650;28;20874;-67
2023/05/27 10:59:48;;;;;;;15.85;6.65;;;;;;;;;;5065895;28;20047;-66
2023/05/27 11:02:14;;;;;;;16.70;6.32;;;;;;;;;;5060003;28;20446;-67
2023/05/27 11:04:40;;;;;;;10.77;6.68;;;;;;;;;;5058983;28;20028;-65
2023/05/27 11:07:05;;;;;;;15.43;7.28;;;;;;;;;;5068251;28;20123;-66
2023/05/27 11:09:31;;;;;;;17.90;7.38;;;;;;;;;;5060857;28;20778;-66
2023/05/27 11:12:02;;;;;;;13.75;6.70;;;;;;;;;;5074564;28;20126;-66
2023/05/27 11:14:27;;;;;;;13.40;6.60;;;;;;;;;;5067306;28;20051;-66
2023/05/27 11:16:53;;;;;;;17.17;7.88;;;;;;;;;;5068508;28;20031;-67
2023/05/27 11:19:18;;;;;;;114.90;27.17;;;;;;;;;;5042903;28;20015;-66
2023/05/27 11:21:48;;;;;;;17.63;7.40;;;;;;;;;;5066516;28;20039;-68
2023/05/27 11:24:17;;;;;;;29.38;10.52;;;;;;;;;;5067100;28;20123;-67
2023/05/27 11:26:46;;;;;;;97.53;22.17;;;;;;;;;;5095001;28;20022;-67
2023/05/27 11:29:12;;;;;;;12.82;5.95;;;;;;;;;;5104720;28;20031;-67
2023/05/27 11:31:40;;;;;;;12.90;6.65;;;;;;;;;;5097022;28;20478;-67
2023/05/27 11:34:11;;;;;;;17.20;6.95;;;;;;;;;;5099543;28;20020;-66
2023/05/27 11:36:36;;;;;;;10.80;6.93;;;;;;;;;;5099024;28;20474;-67
2023/05/27 11:39:01;;;;;;;12.45;6.65;;;;;;;;;;5102251;28;20072;-68
2023/05/27 11:41:27;;;;;;;12.40;7.03;;;;;;;;;;5109636;28;20112;-67
2023/05/27 11:43:58;;;;;;;19.45;7.30;;;;;;;;;;5079964;28;20023;-67
2023/05/27 11:46:39;;;;;;;16.80;6.63;;;;;;;;;;5068906;28;20062;-68
2023/05/27 11:49:06;;;;;;;17.05;7.15;;;;;;;;;;5089129;28;20047;-67
2023/05/27 11:51:33;;;;;;;17.33;7.43;;;;;;;;;;5096741;28;20036;-68
2023/05/27 11:54:00;;;;;;;17.17;6.95;;;;;;;;;;5096226;28;20020;-68
2023/05/27 11:56:28;;;;;;;16.98;7.93;;;;;;;;;;5093198;28;20051;-65
2023/05/27 11:58:53;;;;;;;13.70;6.70;;;;;;;;;;5090995;28;20161;-66
2023/05/27 12:01:18;;;;;;;12.53;6.93;;;;;;;;;;5100100;28;20015;-66
2023/05/27 12:03:45;;;;;;;18.00;7.70;;;;;;;;;;5095348;28;20031;-64
2023/05/27 12:06:10;;;;;;;15.68;6.38;;;;;;;;;;5095927;28;20470;-65
2023/05/27 12:08:36;;;;;;;16.55;6.63;;;;;;;;;;5098245;28;20050;-66
2023/05/27 12:11:01;;;;;;;17.27;6.95;;;;;;;;;;5101874;28;20020;-65
2023/05/27 12:13:31;;;;;;;13.80;6.28;;;;;;;;;;5095755;28;20028;-66
2023/05/27 12:15:56;;;;;;;14.02;7.50;;;;;;;;;;5071554;28;20016;-65
2023/05/27 12:18:23;;;;;;;23.30;6.45;;;;;;;;;;5096029;28;20031;-65
2023/05/27 12:20:48;;;;;;;13.10;6.43;;;;;;;;;;5094519;28;20089;-65
2023/05/27 12:23:13;;;;;;;12.80;6.50;;;;;;;;;;5108255;28;20411;-64
2023/05/27 12:25:39;;;;;;;14.02;7.00;;;;;;;;;;5095143;28;20024;-65
2023/05/27 12:28:06;;;;;;;16.70;6.72;;;;;;;;;;5096145;28;20490;-66
2023/05/27 12:30:31;;;;;;;13.32;7.13;;;;;;;;;;5095068;28;20024;-66
2023/05/27 12:32:58;;;;;;;11.90;6.33;;;;;;;;;;5095968;28;20024;-65
2023/05/27 12:35:24;;;;;;;12.73;6.90;;;;;;;;;;5105803;28;20525;-65
2023/05/27 12:37:49;;;;;;;11.38;5.95;;;;;;;;;;5094590;28;20110;-66
2023/05/27 12:40:14;;;;;;;13.33;6.37;;;;;;;;;;5094080;28;20054;-65
2023/05/27 12:42:43;;;;;;;12.65;6.75;;;;;;;;;;5098099;28;20317;-66
2023/05/27 12:45:09;;;;;;;21.75;6.03;;;;;;;;;;5103432;28;20054;-66
2023/05/27 12:47:34;;;;;;;12.88;6.72;;;;;;;;;;5101012;28;20019;-66
2023/05/27 12:49:59;;;;;;;13.77;6.43;;;;;;;;;;5113755;28;20063;-66
2023/05/27 12:52:24;;;;;;;13.47;6.97;;;;;;;;;;5095207;28;20764;-66
2023/05/27 12:54:50;;;;;;;10.93;6.30;;;;;;;;;;5095008;28;20301;-66
2023/05/27 12:57:15;;;;;;;12.27;6.13;;;;;;;;;;5107417;28;20269;-66
2023/05/27 12:59:41;;;;;;;20.55;7.20;;;;;;;;;;5094075;28;20780;-65
2023/05/27 13:02:06;;;;;;;12.07;7.00;;;;;;;;;;5111575;28;20036;-65
2023/05/27 13:04:32;;;;;;;15.93;6.35;;;;;;;;;;5113326;28;20502;-64
2023/05/27 13:06:57;;;;;;;15.60;6.85;;;;;;;;;;5112981;28;20028;-65
2023/05/27 13:09:23;;;;;;;14.95;6.40;;;;;;;;;;5113316;28;20031;-65
2023/05/27 13:11:48;;;;;;;12.80;6.88;;;;;;;;;;5099674;28;20031;-66
2023/05/27 13:14:13;;;;;;;13.37;6.17;;;;;;;;;;5111934;28;20024;-65
2023/05/27 13:16:38;;;;;;;16.30;6.57;;;;;;;;;;5112131;28;20273;-65
2023/05/27 13:19:04;;;;;;;11.43;6.27;;;;;;;;;;5093282;28;20807;-65
2023/05/27 13:21:29;;;;;;;15.87;6.87;;;;;;;;;;5092971;28;20267;-65
2023/05/27 13:23:54;;;;;;;14.38;6.18;;;;;;;;;;5102106;28;20275;-66
2023/05/27 13:26:20;;;;;;;12.33;5.93;;;;;;;;;;5112804;28;20102;-65
2023/05/27 13:28:46;;;;;;;11.95;6.43;;;;;;;;;;5111295;28;20318;-65
2023/05/27 13:31:11;;;;;;;13.40;6.95;;;;;;;;;;5112859;28;20032;-65
2023/05/27 13:33:36;;;;;;;27.13;6.37;;;;;;;;;;5107325;28;20530;-65
2023/05/27 13:36:01;;;;;;;17.17;6.57;;;;;;;;;;5103525;28;20284;-65
2023/05/27 13:38:27;;;;;;;12.50;5.95;;;;;;;;;;5092371;28;20401;-67
2023/05/27 13:40:52;;;;;;;10.50;5.83;;;;;;;;;;5095919;28;20104;-67
2023/05/27 13:43:17;;;;;;;14.40;7.35;;;;;;;;;;5093150;28;20286;-66
2023/05/27 13:45:43;;;;;;;14.75;6.68;;;;;;;;;;5105768;28;20085;-66
2023/05/27 13:48:08;;;;;;;13.65;6.88;;;;;;;;;;5099294;28;20107;-66
2023/05/27 13:50:34;;;;;;;10.57;6.53;;;;;;;;;;5103222;28;20389;-65
2023/05/27 13:53:00;;;;;;;21.73;6.57;;;;;;;;;;5098043;28;20266;-64
2023/05/27 13:55:25;;;;;;;16.42;6.25;;;;;;;;;;5103806;28;20031;-64
2023/05/27 13:57:50;;;;;;;18.83;6.50;;;;;;;;;;5098373;28;20383;-65
2023/05/27 14:00:16;;;;;;;10.65;6.03;;;;;;;;;;5103380;28;20281;-67
2023/05/27 14:02:42;;;;;;;17.98;6.22;;;;;;;;;;5105150;28;20111;-65
2023/05/27 14:05:07;;;;;;;14.82;5.82;;;;;;;;;;5102554;28;20470;-67
2023/05/27 14:07:32;;;;;;;12.73;5.82;;;;;;;;;;5108422;28;20032;-67
2023/05/27 14:09:58;;;;;;;21.60;6.30;;;;;;;;;;5100630;28;20472;-65
2023/05/27 14:12:23;;;;;;;12.77;6.70;;;;;;;;;;5093070;28;20282;-65
2023/05/27 14:14:48;;;;;;;17.02;6.80;;;;;;;;;;5094100;28;20032;-64
2023/05/27 14:17:13;;;;;;;13.60;6.53;;;;;;;;;;5094812;28;20446;-63
2023/05/27 14:19:39;;;;;;;23.27;6.53;;;;;;;;;;5093828;28;20260;-65
2023/05/27 14:22:04;;;;;;;14.23;6.80;;;;;;;;;;5095162;28;20055;-67